createdAt,value
2017-03-02T00:09:28.192Z,9
2017-03-02T00:19:28.328Z,10
2017-03-02T00:29:28.046Z,10
2017-03-02T00:39:28.336Z,10
2017-03-02T00:49:28.154Z,12
2017-03-02T00:59:28.179Z,13
2017-03-02T01:09:28.271Z,13
2017-03-02T01:19:28.118Z,15
2017-03-02T01:29:28.190Z,16
2017-03-02T01:39:28.060Z,19
2017-03-02T01:49:28.209Z,20
2017-03-02T01:59:28.155Z,21
2017-03-02T02:09:28.080Z,19
2017-03-02T02:19:28.141Z,17
2017-03-02T02:29:28.164Z,19
2017-03-02T02:39:28.146Z,21
2017-03-02T02:49:28.120Z,22
2017-03-02T02:59:28.206Z,20
2017-03-02T03:09:28.125Z,21
2017-03-02T03:19:28.193Z,21
2017-03-02T03:29:28.130Z,23
2017-03-02T03:39:28.219Z,21
2017-03-02T03:49:28.163Z,17
2017-03-02T03:59:28.208Z,15
2017-03-02T04:09:28.239Z,10
2017-03-02T04:19:28.244Z,6
2017-03-02T04:29:28.228Z,5
2017-03-02T04:39:28.161Z,3
2017-03-02T04:49:28.262Z,3
2017-03-02T04:59:28.210Z,3
2017-03-02T05:09:28.805Z,4
2017-03-02T05:19:28.213Z,3
2017-03-02T05:29:28.297Z,4
2017-03-02T05:39:28.301Z,3
2017-03-02T05:49:28.307Z,4
2017-03-02T05:59:28.323Z,3
2017-03-02T06:09:28.323Z,3
2017-03-02T06:19:28.321Z,3
2017-03-02T06:29:28.416Z,3
2017-03-02T06:39:28.283Z,4
2017-03-02T06:49:28.275Z,3
2017-03-02T06:59:28.359Z,5
2017-03-02T07:09:28.291Z,3
2017-03-02T07:19:43.369Z,4
2017-03-02T07:29:28.342Z,6
2017-03-02T07:39:28.448Z,5
2017-03-02T07:49:28.358Z,4
2017-03-02T07:59:28.471Z,3
2017-03-02T08:09:28.359Z,2
2017-03-02T08:19:28.354Z,3
2017-03-02T08:29:28.431Z,3
2017-03-02T08:39:28.368Z,2
2017-03-02T08:49:28.499Z,2
2017-03-02T08:59:28.376Z,3
2017-03-02T09:09:28.425Z,3
2017-03-02T09:19:28.376Z,4
2017-03-02T09:29:28.565Z,3
2017-03-02T09:39:28.430Z,3
2017-03-02T09:49:28.445Z,3
2017-03-02T09:59:28.417Z,2
2017-03-02T10:09:28.515Z,2
2017-03-02T10:19:28.412Z,3
2017-03-02T10:29:28.719Z,4
2017-03-02T10:39:28.597Z,4
2017-03-02T10:49:28.442Z,3
2017-03-02T10:59:28.477Z,3
2017-03-02T11:09:28.503Z,2
2017-03-02T11:19:28.476Z,3
2017-03-02T11:29:28.528Z,3
2017-03-02T11:39:28.594Z,3
2017-03-02T11:49:28.567Z,4
2017-03-02T11:59:28.822Z,3
2017-03-02T12:09:28.502Z,4
2017-03-02T12:19:28.554Z,4
2017-03-02T12:29:28.617Z,4
2017-03-02T12:39:28.592Z,3
2017-03-02T12:49:28.530Z,3
2017-03-02T12:59:29.062Z,4
2017-03-02T13:09:28.764Z,3
2017-03-02T13:19:28.674Z,4
2017-03-02T13:29:28.625Z,3
2017-03-02T13:39:28.590Z,4
2017-03-02T13:49:28.816Z,4
2017-03-02T13:59:28.648Z,4
2017-03-02T14:09:28.845Z,4
2017-03-02T14:19:29.411Z,5
2017-03-02T14:29:28.745Z,3
2017-03-02T14:39:28.822Z,3
2017-03-02T14:49:28.765Z,6
2017-03-02T14:59:29.717Z,5
2017-03-02T15:09:28.853Z,4
2017-03-02T15:19:28.786Z,4
2017-03-02T15:29:28.875Z,3
2017-03-02T15:39:28.753Z,4
2017-03-02T15:49:28.779Z,4
2017-03-02T15:59:29.937Z,4
2017-03-02T16:09:29.008Z,4
2017-03-02T16:19:28.978Z,3
2017-03-02T16:29:28.832Z,4
2017-03-02T16:39:28.805Z,4
2017-03-02T16:49:28.770Z,4
2017-03-02T16:59:28.797Z,4
2017-03-02T17:09:28.820Z,4
2017-03-02T17:19:28.776Z,4
2017-03-02T17:29:28.850Z,5
2017-03-02T17:39:28.827Z,4
2017-03-02T17:49:29.061Z,4
2017-03-02T17:59:28.851Z,4
2017-03-02T18:09:29.119Z,5
2017-03-02T18:19:28.883Z,4
2017-03-02T18:29:28.872Z,5
2017-03-02T18:39:28.869Z,4
2017-03-02T18:49:28.946Z,5
2017-03-02T18:59:28.859Z,5
2017-03-02T19:09:28.878Z,5
2017-03-02T19:19:29.060Z,5
2017-03-02T19:29:28.994Z,5
2017-03-02T19:39:28.959Z,5
2017-03-02T19:49:28.917Z,5
2017-03-02T19:59:28.995Z,6
2017-03-02T20:09:28.976Z,6
2017-03-02T20:19:29.086Z,5
2017-03-02T20:29:28.933Z,7
2017-03-02T20:39:29.026Z,6
2017-03-02T20:49:29.112Z,5
2017-03-02T20:59:28.965Z,4
2017-03-02T21:09:28.969Z,5
2017-03-02T21:19:29.034Z,5
2017-03-02T21:29:29.161Z,4
2017-03-02T21:39:29.033Z,5
2017-03-02T21:49:29.308Z,5
2017-03-02T21:59:30.234Z,4
2017-03-02T22:09:29.571Z,3
2017-03-02T22:19:29.824Z,6
2017-03-02T22:29:29.687Z,4
2017-03-02T22:39:30.127Z,4
2017-03-02T22:49:29.484Z,6
2017-03-02T22:59:29.601Z,5
2017-03-02T23:09:29.115Z,5
2017-03-02T23:19:29.446Z,5
2017-03-02T23:29:29.333Z,7
2017-03-02T23:39:29.238Z,5
2017-03-02T23:49:29.233Z,5
2017-03-02T23:59:29.227Z,5
